Time;durP1;ratioP1;P1;durP2;ratioP2;P2;SDS_P1;SDS_P2;PMS_P1;PMS_P2;Temp;Humidity;BMP_temperature;BMP_pressure;BME280_temperature;BME280_humidity;BME280_pressure;Samples;Min_cycle;Max_cycle;Signal;HPM_P1;HPM_P2
2022/07/10 00:00:09;;;;;;;6.78;4.65;;;;;;;20.08;66.02;100172.94;343771;28;1239;-73
2022/07/10 00:00:21;;;;;;;5.50;4.35;;;;;;;20.12;65.85;100170.91;343905;28;1153;-73
2022/07/10 00:00:34;;;;;;;4.53;4.13;;;;;;;20.08;65.86;100179.97;343647;28;1121;-73
2022/07/10 00:00:46;;;;;;;4.63;4.22;;;;;;;20.10;65.88;100181.59;343844;28;1094;-73
2022/07/10 00:00:58;;;;;;;4.57;4.18;;;;;;;20.13;65.12;100178.75;343759;28;1062;-73
2022/07/10 00:01:10;;;;;;;4.55;4.15;;;;;;;20.15;65.18;100181.28;343725;28;1183;-73
2022/07/10 00:01:22;;;;;;;4.80;4.30;;;;;;;20.15;65.21;100176.00;343504;28;1090;-73
2022/07/10 00:01:34;;;;;;;4.65;4.20;;;;;;;20.16;65.31;100167.13;343640;28;1038;-73
2022/07/10 00:01:46;;;;;;;4.50;4.10;;;;;;;20.16;65.27;100182.97;343610;28;1270;-73
2022/07/10 00:01:58;;;;;;;4.40;4.00;;;;;;;20.17;65.30;100183.84;343544;28;1051;-73
2022/07/10 00:02:10;;;;;;;4.55;4.03;;;;;;;20.13;65.65;100178.75;343184;28;1055;-73
2022/07/10 00:02:22;;;;;;;4.53;4.10;;;;;;;20.12;65.60;100176.19;343627;28;1039;-73
2022/07/10 00:02:35;;;;;;;4.50;4.10;;;;;;;20.09;65.62;100177.25;343058;28;2461;-73
2022/07/10 00:02:47;;;;;;;4.80;4.22;;;;;;;20.11;65.51;100179.78;343263;28;1582;-73
2022/07/10 00:02:59;;;;;;;5.05;4.28;;;;;;;20.06;65.59;100172.19;343942;28;1229;-73
2022/07/10 00:03:12;;;;;;;4.75;4.30;;;;;;;20.11;65.37;100179.78;342395;28;1153;-73
2022/07/10 00:03:24;;;;;;;4.80;4.30;;;;;;;20.11;65.52;100175.34;342032;28;1255;-73
2022/07/10 00:03:36;;;;;;;5.28;4.35;;;;;;;20.10;65.25;100183.38;342485;28;1090;-73
2022/07/10 00:03:49;;;;;;;5.35;4.25;;;;;;;20.11;65.12;100179.78;342257;28;1051;-73
2022/07/10 00:04:01;;;;;;;4.93;4.22;;;;;;;20.08;65.24;100174.69;342867;28;1193;-73
2022/07/10 00:04:14;;;;;;;4.75;4.35;;;;;;;20.09;65.17;100181.69;343428;28;1024;-73
2022/07/10 00:04:26;;;;;;;4.80;4.22;;;;;;;20.09;65.21;100177.25;343345;28;1035;-73
2022/07/10 00:04:37;;;;;;;6.13;4.05;;;;;;;20.11;65.26;100177.16;343527;28;1255;-73
2022/07/10 00:04:49;;;;;;;6.88;4.15;;;;;;;20.13;65.03;100181.38;343569;28;1084;-73
2022/07/10 00:05:02;;;;;;;5.47;4.30;;;;;;;20.08;64.92;100172.94;343423;28;1578;-73
2022/07/10 00:05:14;;;;;;;5.70;4.68;;;;;;;20.04;65.05;100165.28;343261;28;1217;-73
2022/07/10 00:05:31;;;;;;;7.80;4.68;;;;;;;20.08;65.22;100175.56;343158;28;1195;-73
2022/07/10 00:05:43;;;;;;;7.63;4.33;;;;;;;20.07;65.02;100176.50;343220;28;1145;-73
2022/07/10 00:05:56;;;;;;;5.85;4.28;;;;;;;20.08;65.11;100169.41;343646;28;1137;-73
2022/07/10 00:06:09;;;;;;;5.45;4.28;;;;;;;20.07;65.24;100178.31;343905;28;1324;-73
2022/07/10 00:06:21;;;;;;;4.72;4.20;;;;;;;20.07;65.28;100173.84;343764;28;1233;-73
2022/07/10 00:06:33;;;;;;;4.95;4.45;;;;;;;20.08;65.27;100174.69;343824;28;1091;-73
2022/07/10 00:06:46;;;;;;;4.63;4.22;;;;;;;20.09;65.35;100176.41;342912;28;2461;-73
2022/07/10 00:06:58;;;;;;;4.50;4.10;;;;;;;20.07;65.17;100180.94;343378;28;1580;-73
2022/07/10 00:07:10;;;;;;;4.80;4.40;;;;;;;20.05;65.57;100174.91;343870;28;1138;-73
2022/07/10 00:07:22;;;;;;;5.93;4.47;;;;;;;19.97;65.65;100177.19;343763;28;1332;-73
2022/07/10 00:07:34;;;;;;;6.55;4.80;;;;;;;19.98;65.48;100173.59;343516;28;1048;-73
2022/07/10 00:07:47;;;;;;;6.38;4.80;;;;;;;19.98;65.69;100169.19;343663;28;1179;-73
2022/07/10 00:08:00;;;;;;;5.75;4.63;;;;;;;20.00;65.58;100174.34;344078;28;1381;-73
2022/07/10 00:08:12;;;;;;;5.38;4.45;;;;;;;19.93;65.79;100172.09;345058;28;1626;-73
2022/07/10 00:08:24;;;;;;;4.65;4.18;;;;;;;19.95;65.64;100175.47;345177;28;966;-73
2022/07/10 00:08:36;;;;;;;5.03;4.07;;;;;;;19.96;65.61;100176.34;346320;28;1079;-73
2022/07/10 00:08:48;;;;;;;5.90;4.22;;;;;;;19.93;65.69;100174.72;346295;28;1175;-73
2022/07/10 00:09:00;;;;;;;5.18;4.45;;;;;;;19.90;65.90;100177.59;345428;28;1351;-73
2022/07/10 00:09:13;;;;;;;5.10;4.60;;;;;;;19.90;65.67;100176.72;343784;28;1188;-73
2022/07/10 00:09:27;;;;;;;4.80;4.40;;;;;;;19.90;65.49;100174.94;343598;28;1096;-73
2022/07/10 00:09:39;;;;;;;4.80;4.40;;;;;;;19.93;65.38;100177.38;342293;28;1112;-73
2022/07/10 00:09:51;;;;;;;4.72;4.32;;;;;;;19.94;65.46;100176.44;342296;28;1256;-73
2022/07/10 00:10:04;;;;;;;4.57;4.18;;;;;;;19.98;65.42;100178.88;342139;28;1224;-73
2022/07/10 00:10:17;;;;;;;4.43;4.03;;;;;;;19.99;65.40;100175.31;342192;28;1044;-73
2022/07/10 00:10:30;;;;;;;4.13;3.80;;;;;;;20.01;65.25;100171.63;342112;28;1164;-73
2022/07/10 00:10:42;;;;;;;4.20;3.90;;;;;;;19.99;65.41;100170.03;342081;28;1020;-73
2022/07/10 00:10:54;;;;;;;4.53;4.18;;;;;;;20.01;65.17;100174.25;342113;28;1180;-73
2022/07/10 00:11:06;;;;;;;4.60;4.20;;;;;;;20.03;65.02;100174.16;342548;28;1215;-73
2022/07/10 00:11:18;;;;;;;4.22;3.83;;;;;;;20.04;65.23;100171.44;343525;28;1208;-73
2022/07/10 00:11:30;;;;;;;4.25;3.85;;;;;;;20.05;65.10;100174.91;343790;28;1063;-73
2022/07/10 00:11:42;;;;;;;4.97;3.85;;;;;;;20.06;65.13;100176.59;343598;28;1055;-73
2022/07/10 00:11:54;;;;;;;4.72;4.20;;;;;;;20.03;64.78;100176.81;343864;28;1200;-73
2022/07/10 00:12:07;;;;;;;5.13;4.25;;;;;;;20.04;65.05;100170.56;343551;28;1340;-73
2022/07/10 00:12:21;;;;;;;4.50;4.10;;;;;;;20.07;65.06;100173.03;343874;28;1026;-73
2022/07/10 00:12:33;;;;;;;4.60;4.20;;;;;;;20.08;64.75;100174.69;343511;28;1015;-73
2022/07/10 00:12:48;;;;;;;5.25;4.75;;;;;;;20.08;64.69;100174.69;343568;28;1158;-73
2022/07/10 00:13:00;;;;;;;5.53;5.03;;;;;;;20.08;64.85;100167.66;343753;28;1119;-73
2022/07/10 00:13:11;;;;;;;5.10;4.68;;;;;;;20.08;64.69;100174.69;343628;28;1139;-73
2022/07/10 00:13:23;;;;;;;4.85;4.45;;;;;;;20.04;64.67;100168.78;343641;28;1194;-73
2022/07/10 00:13:35;;;;;;;5.07;4.68;;;;;;;20.02;64.78;100169.81;343518;28;1027;-73
2022/07/10 00:13:47;;;;;;;5.63;5.03;;;;;;;19.98;64.80;100173.59;343628;28;1102;-74
2022/07/10 00:13:59;;;;;;;5.70;5.03;;;;;;;19.98;64.71;100173.59;343531;28;1983;-73
2022/07/10 00:14:11;;;;;;;5.43;4.93;;;;;;;19.99;64.72;100170.03;343645;28;1071;-73
2022/07/10 00:14:24;;;;;;;5.15;4.65;;;;;;;19.98;64.83;100174.47;343536;28;1250;-73
2022/07/10 00:14:36;;;;;;;5.10;4.60;;;;;;;19.95;64.94;100174.63;343742;28;1236;-73
2022/07/10 00:14:48;;;;;;;5.05;4.55;;;;;;;19.97;64.78;100177.19;343662;28;2200;-74
2022/07/10 00:15:00;;;;;;;5.38;4.88;;;;;;;19.90;64.84;100172.31;343608;28;1075;-73
2022/07/10 00:15:13;;;;;;;5.53;5.03;;;;;;;19.92;65.09;100174.81;343647;28;1101;-73
2022/07/10 00:15:25;;;;;;;5.53;5.03;;;;;;;19.92;64.93;100170.41;343491;28;1091;-73
2022/07/10 00:15:37;;;;;;;5.28;4.75;;;;;;;19.94;64.71;100168.53;343521;28;1025;-73
2022/07/10 00:15:49;;;;;;;5.32;4.82;;;;;;;19.77;65.40;100176.66;343533;28;1058;-72
2022/07/10 00:16:03;;;;;;;5.68;5.18;;;;;;;19.75;65.52;100173.25;343198;28;1216;-73
2022/07/10 00:16:15;;;;;;;5.57;5.10;;;;;;;19.70;65.70;100164.78;343511;28;1101;-73
2022/07/10 00:16:28;;;;;;;5.72;5.22;;;;;;;19.68;65.77;100175.41;343455;28;1338;-73
2022/07/10 00:16:40;;;;;;;5.93;5.40;;;;;;;19.71;65.68;100171.75;343405;28;1042;-73
2022/07/10 00:16:52;;;;;;;6.25;5.43;;;;;;;19.73;65.60;100164.59;343421;28;1397;-73
2022/07/10 00:17:04;;;;;;;6.28;5.10;;;;;;;19.75;65.53;100175.91;343536;28;1091;-73
2022/07/10 00:17:16;;;;;;;6.65;5.07;;;;;;;19.78;65.51;100166.94;343830;28;1106;-73
2022/07/10 00:17:28;;;;;;;5.97;5.00;;;;;;;19.80;65.40;100173.84;343730;28;1057;-73
2022/07/10 00:17:41;;;;;;;5.60;5.10;;;;;;;19.80;65.34;100176.47;343626;28;1279;-73
2022/07/10 00:17:54;;;;;;;6.00;5.30;;;;;;;19.79;65.33;100169.47;343620;28;1105;-73
2022/07/10 00:18:06;;;;;;;5.95;5.30;;;;;;;19.75;65.26;100174.09;343519;28;932;-73
2022/07/10 00:18:18;;;;;;;6.30;5.20;;;;;;;19.77;65.23;100171.38;343528;28;1169;-73
2022/07/10 00:18:30;;;;;;;7.32;5.10;;;;;;;19.73;65.35;100167.22;342711;28;1488;-73
2022/07/10 00:18:43;;;;;;;7.45;5.22;;;;;;;19.73;65.31;100164.59;342404;28;1063;-73
2022/07/10 00:18:55;;;;;;;5.72;4.85;;;;;;;19.77;65.17;100166.09;342390;28;1026;-73
2022/07/10 00:19:07;;;;;;;5.15;4.63;;;;;;;19.79;65.05;100172.13;342528;28;1218;-73
2022/07/10 00:19:19;;;;;;;4.68;4.28;;;;;;;19.82;64.94;100169.31;343594;28;1228;-73
2022/07/10 00:19:31;;;;;;;4.53;4.13;;;;;;;19.84;64.97;100169.19;343703;28;1181;-73
2022/07/10 00:19:43;;;;;;;4.63;4.22;;;;;;;19.85;65.03;100168.25;343750;28;1066;-73
2022/07/10 00:19:55;;;;;;;4.57;4.18;;;;;;;19.86;65.07;100170.81;343737;28;1335;-73
2022/07/10 00:20:08;;;;;;;4.18;3.88;;;;;;;19.88;64.92;100166.28;342276;28;1253;-73
2022/07/10 00:20:20;;;;;;;4.43;4.03;;;;;;;19.87;65.02;100171.66;342330;28;1071;-73
2022/07/10 00:20:33;;;;;;;4.73;4.33;;;;;;;19.89;64.84;100167.97;342316;28;1030;-73
2022/07/10 00:20:46;;;;;;;5.18;4.78;;;;;;;19.90;64.91;100177.59;341965;28;1046;-73
2022/07/10 00:20:57;;;;;;;5.40;4.90;;;;;;;19.91;64.76;100171.34;343456;28;1181;-73
2022/07/10 00:21:10;;;;;;;5.32;4.82;;;;;;;19.91;64.69;100167.88;344537;28;1059;-73
2022/07/10 00:21:22;;;;;;;5.32;4.82;;;;;;;19.90;64.67;100172.31;344670;28;1236;-74
2022/07/10 00:21:34;;;;;;;5.40;4.90;;;;;;;19.88;64.73;100168.91;344499;28;1220;-73
2022/07/10 00:21:46;;;;;;;5.40;4.85;;;;;;;19.89;64.69;100170.59;344611;28;1064;-73
2022/07/10 00:21:58;;;;;;;5.22;4.68;;;;;;;19.88;64.56;100175.97;344546;28;1180;-73
2022/07/10 00:22:09;;;;;;;5.10;4.50;;;;;;;19.88;64.70;100174.19;340634;28;1688;-73
2022/07/10 00:22:21;;;;;;;4.80;4.30;;;;;;;19.88;64.58;100174.19;341431;28;1969;-73
2022/07/10 00:22:37;;;;;;;4.97;4.32;;;;;;;19.89;64.61;100173.22;341782;28;1232;-73
2022/07/10 00:22:49;;;;;;;5.10;4.47;;;;;;;19.89;64.48;100170.59;342839;28;1008;-73
2022/07/10 00:23:01;;;;;;;5.25;4.78;;;;;;;19.86;64.75;100176.09;344425;28;1319;-73
2022/07/10 00:23:13;;;;;;;5.35;4.90;;;;;;;19.85;64.56;100169.09;344831;28;1059;-73
2022/07/10 00:23:25;;;;;;;5.28;4.80;;;;;;;19.84;64.70;100172.69;344758;28;1171;-73
2022/07/10 00:23:37;;;;;;;4.88;4.47;;;;;;;19.85;64.56;100174.38;344882;28;1319;-73
2022/07/10 00:23:49;;;;;;;4.80;4.40;;;;;;;19.84;64.60;100172.69;344724;28;1282;-73
2022/07/10 00:24:01;;;;;;;4.88;4.47;;;;;;;19.80;64.84;100176.47;343020;28;1876;-73
2022/07/10 00:24:13;;;;;;;5.30;4.80;;;;;;;19.79;64.94;100169.47;343570;28;1046;-73
2022/07/10 00:24:25;;;;;;;5.25;4.75;;;;;;;19.77;64.98;100170.53;343287;28;1067;-73
2022/07/10 00:24:37;;;;;;;5.10;4.70;;;;;;;19.78;64.81;100167.81;343318;28;1107;-73
2022/07/10 00:24:50;;;;;;;5.10;4.60;;;;;;;19.80;64.78;100167.69;343334;28;1114;-73
2022/07/10 00:25:04;;;;;;;4.85;4.35;;;;;;;19.81;64.72;100170.22;342586;28;1192;-73
2022/07/10 00:25:16;;;;;;;4.43;4.03;;;;;;;19.84;64.89;100171.81;341910;28;1063;-73
2022/07/10 00:25:28;;;;;;;4.75;4.25;;;;;;;19.84;64.71;100171.81;342428;28;1056;-73
2022/07/10 00:25:40;;;;;;;5.50;4.60;;;;;;;19.82;64.94;100171.94;343387;28;1250;-73
2022/07/10 00:25:52;;;;;;;5.25;4.75;;;;;;;19.82;64.86;100169.31;344844;28;1330;-73
2022/07/10 00:26:04;;;;;;;5.32;4.70;;;;;;;19.82;64.75;100174.59;344604;28;1230;-73
2022/07/10 00:26:16;;;;;;;4.75;4.30;;;;;;;19.83;64.87;100172.78;344386;28;1062;-73
2022/07/10 00:26:28;;;;;;;4.80;4.40;;;;;;;19.81;64.68;100166.75;344765;28;1074;-73
2022/07/10 00:26:40;;;;;;;5.18;4.55;;;;;;;19.81;64.83;100167.59;344540;28;1065;-73
2022/07/10 00:26:52;;;;;;;5.18;4.68;;;;;;;19.78;64.73;100173.06;344759;28;1141;-73
2022/07/10 00:27:04;;;;;;;6.13;4.65;;;;;;;19.78;64.84;100170.44;344201;28;1051;-73
2022/07/10 00:27:17;;;;;;;5.80;4.95;;;;;;;19.76;64.90;100164.41;343458;28;1300;-73
2022/07/10 00:27:29;;;;;;;5.40;4.90;;;;;;;19.73;65.19;100168.06;343631;28;1072;-73
2022/07/10 00:27:41;;;;;;;5.25;4.80;;;;;;;19.71;65.14;100163.84;343620;28;1098;-73
2022/07/10 00:27:53;;;;;;;5.00;4.57;;;;;;;19.67;65.23;100172.84;343581;28;1047;-73
2022/07/10 00:28:05;;;;;;;5.30;4.80;;;;;;;19.71;65.05;100171.75;343341;28;1025;-73
2022/07/10 00:28:17;;;;;;;5.35;4.85;;;;;;;19.72;65.09;100173.47;343272;28;1489;-73
2022/07/10 00:28:29;;;;;;;5.63;4.68;;;;;;;19.75;64.97;100173.25;343467;28;1479;-73
2022/07/10 00:28:41;;;;;;;5.43;4.70;;;;;;;19.74;64.79;100172.41;343627;28;1094;-73
2022/07/10 00:28:54;;;;;;;5.72;5.00;;;;;;;19.77;64.81;100171.38;343669;28;1110;-73
2022/07/10 00:29:07;;;;;;;5.72;5.05;;;;;;;19.77;64.68;100171.38;343211;28;1111;-73
2022/07/10 00:29:19;;;;;;;5.45;4.95;;;;;;;19.78;64.66;100165.16;343330;28;1293;-74
2022/07/10 00:29:31;;;;;;;5.15;4.68;;;;;;;19.78;64.63;100167.81;343632;28;1086;-73
2022/07/10 00:29:44;;;;;;;5.03;4.45;;;;;;;19.78;64.66;100165.16;343738;28;1033;-73
2022/07/10 00:29:56;;;;;;;5.45;4.32;;;;;;;19.77;64.64;100160.81;343433;28;1051;-73
2022/07/10 00:30:11;;;;;;;5.00;4.30;;;;;;;19.77;64.66;100166.09;343575;28;1123;-73
2022/07/10 00:30:23;;;;;;;5.70;4.82;;;;;;;19.75;64.69;100162.69;343403;28;1103;-73
2022/07/10 00:30:35;;;;;;;7.00;5.80;;;;;;;19.69;64.96;100163.06;343232;28;1238;-73
2022/07/10 00:30:48;;;;;;;7.15;6.20;;;;;;;19.67;64.97;100165.78;342025;28;1098;-73
2022/07/10 00:31:00;;;;;;;6.82;5.60;;;;;;;19.67;64.84;100170.22;340638;28;4685;-73
2022/07/10 00:31:12;;;;;;;6.03;4.95;;;;;;;19.68;64.86;100162.22;343356;28;3090;-73
2022/07/10 00:31:24;;;;;;;5.13;4.70;;;;;;;19.70;64.80;100167.41;342355;28;1094;-73
2022/07/10 00:31:36;;;;;;;5.15;4.70;;;;;;;19.69;64.90;100163.06;342168;28;3218;-73
2022/07/10 00:31:48;;;;;;;5.32;4.82;;;;;;;19.69;64.77;100163.91;342229;28;1051;-73
2022/07/10 00:32:00;;;;;;;5.50;5.00;;;;;;;19.69;64.96;100163.91;342734;28;1267;-73
2022/07/10 00:32:12;;;;;;;5.53;4.80;;;;;;;19.71;64.82;100166.47;343259;28;1195;-73
2022/07/10 00:32:24;;;;;;;5.15;4.63;;;;;;;19.71;64.91;100161.19;343572;28;1046;-73
2022/07/10 00:32:37;;;;;;;5.00;4.60;;;;;;;19.72;64.51;100165.56;343272;28;1552;-73
2022/07/10 00:32:49;;;;;;;5.07;4.68;;;;;;;19.67;64.60;100164.94;343404;28;1166;-73
2022/07/10 00:33:01;;;;;;;5.00;4.60;;;;;;;19.69;64.69;100168.34;342426;28;5236;-74
2022/07/10 00:33:12;;;;;;;4.70;4.30;;;;;;;19.70;64.70;100170.03;341882;28;1110;-73
2022/07/10 00:33:25;;;;;;;4.50;4.10;;;;;;;19.67;64.78;100171.06;342206;28;1083;-73
2022/07/10 00:33:37;;;;;;;4.85;4.38;;;;;;;19.52;65.08;100166.75;342142;28;1111;-73
2022/07/10 00:33:50;;;;;;;5.20;4.57;;;;;;;19.35;65.63;100165.13;342142;28;1019;-74
2022/07/10 00:34:02;;;;;;;5.75;4.93;;;;;;;19.35;65.87;100175.69;341932;28;1517;-73
2022/07/10 00:34:14;;;;;;;6.55;4.95;;;;;;;19.35;65.78;100168.59;342718;28;2265;-73
2022/07/10 00:34:26;;;;;;;5.63;4.80;;;;;;;19.35;65.92;100173.03;342589;28;1628;-73
2022/07/10 00:34:38;;;;;;;5.32;4.78;;;;;;;19.32;65.85;100171.44;342182;28;1027;-73
2022/07/10 00:34:51;;;;;;;5.32;4.88;;;;;;;19.35;65.95;100170.41;342059;28;2445;-73
2022/07/10 00:35:04;;;;;;;5.30;4.80;;;;;;;19.35;66.06;100165.13;343164;28;1132;-73
2022/07/10 00:35:16;;;;;;;5.20;4.70;;;;;;;19.34;66.05;100166.94;343370;28;1166;-73
2022/07/10 00:35:28;;;;;;;5.40;4.70;;;;;;;19.38;65.66;100164.97;343533;28;1176;-73
2022/07/10 00:35:40;;;;;;;4.85;4.35;;;;;;;19.38;65.63;100170.22;343744;28;1064;-73
2022/07/10 00:35:52;;;;;;;5.78;4.60;;;;;;;19.42;65.56;100163.81;343602;28;1911;-73
2022/07/10 00:36:05;;;;;;;5.18;4.65;;;;;;;19.46;65.47;100162.69;344588;28;1348;-73
2022/07/10 00:36:17;;;;;;;4.93;4.35;;;;;;;19.48;65.42;100166.09;343776;28;1123;-73
2022/07/10 00:36:29;;;;;;;5.03;4.40;;;;;;;19.42;65.11;100163.81;343626;28;1249;-73
2022/07/10 00:36:41;;;;;;;5.38;4.57;;;;;;;19.42;65.44;100161.19;343721;28;1181;-73
2022/07/10 00:36:53;;;;;;;5.15;4.65;;;;;;;19.44;65.35;100169.03;343714;28;1115;-73
2022/07/10 00:37:05;;;;;;;4.97;4.57;;;;;;;19.44;65.50;100164.59;345004;28;1256;-73
2022/07/10 00:37:18;;;;;;;7.65;4.70;;;;;;;19.46;65.41;100167.13;343615;28;2432;-74
2022/07/10 00:37:30;;;;;;;8.10;4.93;;;;;;;19.47;65.27;100164.38;343274;28;1822;-73
2022/07/10 00:37:42;;;;;;;6.03;5.03;;;;;;;19.47;65.21;100156.47;343553;28;1202;-73
2022/07/10 00:37:54;;;;;;;5.43;4.93;;;;;;;19.49;65.20;100157.22;343783;28;1070;-73
2022/07/10 00:38:06;;;;;;;5.30;4.80;;;;;;;19.51;65.17;100155.34;343857;28;1071;-73
2022/07/10 00:38:18;;;;;;;5.20;4.80;;;;;;;19.52;65.26;100150.94;343338;28;1565;-73
2022/07/10 00:38:29;;;;;;;5.07;4.68;;;;;;;19.53;65.37;100157.88;343612;28;1176;-73
2022/07/10 00:38:42;;;;;;;5.03;4.63;;;;;;;19.53;65.31;100158.72;343541;28;1204;-73
2022/07/10 00:38:54;;;;;;;5.40;4.90;;;;;;;19.52;65.49;100162.31;343576;28;1080;-73
2022/07/10 00:39:06;;;;;;;5.80;5.30;;;;;;;19.51;65.72;100163.25;343562;28;1087;-73
2022/07/10 00:39:18;;;;;;;5.93;5.32;;;;;;;19.53;65.58;100160.53;343212;28;1167;-73
2022/07/10 00:39:30;;;;;;;6.57;5.47;;;;;;;19.51;65.67;100160.59;343123;28;1211;-73
2022/07/10 00:39:42;;;;;;;6.43;5.60;;;;;;;19.51;65.78;100159.78;343160;28;1294;-73
2022/07/10 00:39:54;;;;;;;5.93;5.43;;;;;;;19.52;65.79;100151.78;343381;28;1077;-73
2022/07/10 00:40:07;;;;;;;5.57;5.13;;;;;;;19.52;65.76;100162.31;343263;28;1242;-73
2022/07/10 00:40:19;;;;;;;5.40;5.00;;;;;;;19.53;66.00;100157.88;343471;28;1067;-73
2022/07/10 00:40:31;;;;;;;5.73;5.23;;;;;;;19.54;65.99;100164.88;343595;28;1103;-73
2022/07/10 00:40:43;;;;;;;5.70;5.20;;;;;;;19.55;65.94;100161.28;343720;28;1065;-73
2022/07/10 00:40:55;;;;;;;6.07;5.53;;;;;;;19.54;65.88;100157.78;343792;28;1135;-73
2022/07/10 00:41:07;;;;;;;6.03;5.43;;;;;;;19.46;66.50;100164.50;343485;28;1110;-73
2022/07/10 00:41:19;;;;;;;6.40;5.80;;;;;;;19.38;66.96;100164.97;343733;28;1184;-73
2022/07/10 00:41:31;;;;;;;6.70;6.07;;;;;;;19.32;67.21;100170.59;343751;28;1157;-74
2022/07/10 00:41:43;;;;;;;7.43;6.40;;;;;;;19.24;67.35;100167.59;343820;28;1114;-73
2022/07/10 00:42:06;;;;;;;7.07;6.10;;;;;;;19.21;67.17;100162.50;343925;28;1236;-73
2022/07/10 00:42:18;;;;;;;6.25;5.65;;;;;;;19.24;67.17;100164.94;343780;28;1352;-73
2022/07/10 00:42:30;;;;;;;6.65;5.63;;;;;;;19.26;67.29;100170.97;343689;28;1278;-73
2022/07/10 00:42:42;;;;;;;6.10;5.30;;;;;;;19.28;66.79;100163.81;343392;28;1278;-73
2022/07/10 00:42:54;;;;;;;5.90;5.30;;;;;;;19.30;66.29;100172.50;343549;28;1067;-73
2022/07/10 00:43:09;;;;;;;5.82;5.32;;;;;;;19.32;66.01;100162.69;343473;28;1063;-73
2022/07/10 00:43:21;;;;;;;5.72;5.22;;;;;;;19.31;65.63;100158.34;343691;28;1051;-73
2022/07/10 00:43:56;;;;;;;5.90;5.30;;;;;;;19.24;65.29;100162.31;343591;28;1262;-73
2022/07/10 00:44:08;;;;;;;6.63;6.03;;;;;;;19.14;65.62;100165.50;343495;28;1024;-73
2022/07/10 00:44:20;;;;;;;6.50;5.90;;;;;;;19.12;65.70;100164.75;343622;28;1234;-73
2022/07/10 00:44:32;;;;;;;6.28;5.68;;;;;;;19.04;66.70;100167.00;343721;28;1034;-73
2022/07/10 00:44:44;;;;;;;6.60;5.85;;;;;;;18.98;67.58;100175.25;343305;28;1031;-73
2022/07/10 00:44:56;;;;;;;6.63;6.03;;;;;;;18.91;68.22;100166.00;342365;28;1242;-74
2022/07/10 00:45:09;;;;;;;6.67;6.10;;;;;;;18.95;68.09;100168.41;342545;28;1172;-73
2022/07/10 00:45:20;;;;;;;6.38;5.88;;;;;;;18.98;67.96;100166.50;343497;28;1058;-73
2022/07/10 00:45:32;;;;;;;6.32;5.80;;;;;;;19.01;67.83;100161.88;343116;28;1050;-73
2022/07/10 00:45:44;;;;;;;6.32;5.72;;;;;;;18.99;67.78;100158.50;343608;28;1099;-73
2022/07/10 00:45:57;;;;;;;6.10;5.50;;;;;;;19.04;67.50;100167.00;343400;28;1230;-73
2022/07/10 00:46:09;;;;;;;5.78;5.20;;;;;;;19.04;67.42;100167.00;342189;28;1088;-73
2022/07/10 00:46:21;;;;;;;5.45;4.95;;;;;;;19.07;67.30;100166.78;342259;28;1229;-73
2022/07/10 00:46:33;;;;;;;5.07;4.68;;;;;;;19.10;67.44;100171.91;342216;28;1063;-73
2022/07/10 00:46:45;;;;;;;5.07;4.55;;;;;;;19.13;67.42;100171.69;342110;28;1051;-73
2022/07/10 00:46:57;;;;;;;5.43;4.75;;;;;;;19.16;67.46;100171.53;342537;28;1059;-73
2022/07/10 00:47:10;;;;;;;5.30;4.82;;;;;;;19.19;67.35;100164.38;343536;28;1172;-73
2022/07/10 00:47:22;;;;;;;5.43;4.93;;;;;;;19.21;67.21;100162.50;343727;28;1179;-73
2022/07/10 00:47:35;;;;;;;5.47;4.97;;;;;;;19.22;67.23;100165.03;343359;28;1195;-73
2022/07/10 00:47:47;;;;;;;5.60;5.10;;;;;;;19.24;67.19;100167.59;343384;28;1224;-73
2022/07/10 00:48:00;;;;;;;5.40;4.90;;;;;;;19.25;67.25;100164.00;343583;28;1533;-73
2022/07/10 00:48:12;;;;;;;5.22;4.72;;;;;;;19.26;67.32;100171.81;343288;28;1143;-73
2022/07/10 00:48:24;;;;;;;7.60;5.00;;;;;;;19.27;67.17;100170.03;343589;28;1051;-73
2022/07/10 00:48:36;;;;;;;7.75;5.25;;;;;;;19.27;66.98;100167.38;343834;28;1161;-73
2022/07/10 00:48:49;;;;;;;7.35;5.20;;;;;;;19.27;66.70;100167.38;343673;28;1235;-73
2022/07/10 00:49:01;;;;;;;5.95;5.25;;;;;;;19.26;66.97;100165.72;343561;28;1083;-73
2022/07/10 00:49:12;;;;;;;6.00;5.38;;;;;;;19.08;67.79;100168.50;343527;28;1202;-73
2022/07/10 00:49:24;;;;;;;6.93;5.72;;;;;;;19.00;68.36;100176.00;343625;28;1043;-73
2022/07/10 00:49:38;;;;;;;6.63;5.72;;;;;;;18.94;68.42;100181.66;343325;28;1200;-74
2022/07/10 00:49:50;;;;;;;6.22;5.63;;;;;;;18.90;68.48;100166.97;342994;28;3110;-73
2022/07/10 00:50:03;;;;;;;6.00;5.40;;;;;;;18.93;68.22;100175.53;342074;28;2361;-73
2022/07/10 00:50:15;;;;;;;5.97;5.05;;;;;;;18.98;68.17;100172.63;343112;28;1284;-73
2022/07/10 00:50:28;;;;;;;6.53;5.00;;;;;;;19.00;67.94;100177.81;342577;28;2825;-73
2022/07/10 00:50:42;;;;;;;7.20;5.15;;;;;;;19.00;67.70;100170.75;343510;28;1076;-73
2022/07/10 00:50:54;;;;;;;6.50;5.30;;;;;;;19.03;67.42;100173.19;343642;28;1627;-73
2022/07/10 00:51:06;;;;;;;6.25;5.38;;;;;;;19.04;67.23;100174.88;342353;28;1063;-73
2022/07/10 00:51:21;;;;;;;5.72;5.22;;;;;;;19.06;66.83;100178.28;342419;28;1141;-73
2022/07/10 00:51:33;;;;;;;5.60;5.10;;;;;;;19.07;66.52;100172.06;343304;28;1322;-73
2022/07/10 00:51:46;;;;;;;5.60;5.10;;;;;;;19.03;65.98;100170.53;343299;28;1173;-73
2022/07/10 00:52:01;;;;;;;5.50;5.00;;;;;;;18.98;66.23;100177.06;343295;28;1304;-73
2022/07/10 00:52:15;;;;;;;6.00;5.50;;;;;;;18.90;66.51;100180.13;343124;28;1117;-73
2022/07/10 00:52:28;;;;;;;5.85;5.35;;;;;;;18.80;66.96;100182.47;343349;28;926;-73
2022/07/10 00:52:40;;;;;;;6.00;5.50;;;;;;;18.80;67.90;100173.72;342593;28;1454;-73
2022/07/10 00:52:53;;;;;;;6.78;6.18;;;;;;;18.80;68.46;100173.72;341421;28;1659;-73
2022/07/10 00:53:05;;;;;;;6.75;6.15;;;;;;;18.85;68.40;100182.19;341166;28;1220;-72
2022/07/10 00:53:17;;;;;;;6.15;5.55;;;;;;;18.88;68.30;100182.00;342188;28;1111;-73
2022/07/10 00:53:29;;;;;;;5.90;5.40;;;;;;;18.91;68.33;100176.53;342012;28;1400;-73
2022/07/10 00:53:43;;;;;;;5.78;5.28;;;;;;;18.95;68.32;100173.66;343394;28;1343;-72
2022/07/10 00:53:57;;;;;;;5.43;4.93;;;;;;;19.00;67.98;100180.44;342958;28;1157;-72
2022/07/10 00:54:09;;;;;;;5.15;4.72;;;;;;;19.03;68.08;100181.09;343301;28;1270;-72
2022/07/10 00:54:21;;;;;;;5.28;4.78;;;;;;;19.05;67.87;100179.22;343379;28;1317;-72
2022/07/10 00:54:34;;;;;;;5.57;5.07;;;;;;;19.07;67.87;100177.31;343327;28;1179;-72
2022/07/10 00:54:52;;;;;;;7.55;5.40;;;;;;;19.09;67.83;100175.44;343488;28;1323;-72
2022/07/10 00:55:06;;;;;;;7.57;5.70;;;;;;;19.11;67.98;100173.56;343089;28;1300;-73
2022/07/10 00:55:18;;;;;;;5.97;5.47;;;;;;;19.04;66.59;100177.53;343521;28;1674;-72
2022/07/10 00:55:30;;;;;;;6.10;5.50;;;;;;;18.84;68.29;100181.34;343379;28;1081;-72
2022/07/10 00:55:42;;;;;;;7.00;5.82;;;;;;;18.70;69.16;100178.63;342555;28;1443;-73
2022/07/10 00:55:54;;;;;;;7.15;5.90;;;;;;;18.74;69.22;100178.34;342368;28;2365;-73
2022/07/10 00:56:07;;;;;;;7.43;5.85;;;;;;;18.81;68.96;100185.94;342055;28;1076;-71
2022/07/10 00:56:22;;;;;;;7.07;5.55;;;;;;;18.85;68.71;100177.75;342221;28;1573;-73
2022/07/10 00:56:34;;;;;;;6.35;5.30;;;;;;;18.90;68.70;100183.59;342170;28;1240;-73
2022/07/10 00:56:46;;;;;;;6.35;5.40;;;;;;;18.93;68.59;100180.81;342244;28;1060;-72
2022/07/10 00:56:59;;;;;;;6.43;5.63;;;;;;;18.97;68.33;100176.19;342427;28;1333;-73
2022/07/10 00:57:16;;;;;;;7.28;5.53;;;;;;;19.01;68.33;100177.69;343424;28;1665;-72
2022/07/10 00:57:28;;;;;;;6.05;5.18;;;;;;;19.06;68.14;100180.91;343809;28;1150;-73
2022/07/10 00:57:41;;;;;;;5.45;4.95;;;;;;;19.09;68.06;100175.44;343744;28;1067;-73
2022/07/10 00:57:53;;;;;;;5.53;4.95;;;;;;;19.12;68.01;100170.00;343730;28;1147;-73
2022/07/10 00:58:10;;;;;;;6.30;5.10;;;;;;;19.16;67.90;100176.78;343379;28;1419;-72
2022/07/10 00:58:22;;;;;;;7.70;5.50;;;;;;;19.16;67.88;100174.16;343467;28;1257;-73
2022/07/10 00:58:34;;;;;;;6.03;5.43;;;;;;;19.16;68.00;100171.53;343776;28;1193;-73
2022/07/10 00:58:48;;;;;;;5.97;5.43;;;;;;;19.19;67.85;100170.47;343681;28;1051;-73
2022/07/10 00:59:01;;;;;;;5.90;5.40;;;;;;;19.19;67.85;100167.00;343859;28;1118;-72
2022/07/10 00:59:13;;;;;;;5.60;5.10;;;;;;;19.22;67.85;100169.47;343692;28;1209;-73
2022/07/10 00:59:27;;;;;;;5.60;5.10;;;;;;;19.23;67.63;100171.16;343901;28;1195;-72
2022/07/10 00:59:39;;;;;;;5.88;5.38;;;;;;;19.25;67.69;100169.28;343498;28;1299;-72